createdAt,value
2018-07-08T00:02:02.590Z,60.22
2018-07-08T00:04:31.604Z,61.27
2018-07-08T00:07:06.328Z,61.58
2018-07-08T00:09:35.247Z,61.63
2018-07-08T00:12:04.185Z,61.49
2018-07-08T00:14:33.096Z,61.49
2018-07-08T00:17:02.093Z,60.91
2018-07-08T00:19:31.025Z,60.71
2018-07-08T00:21:59.955Z,61.42
2018-07-08T00:24:28.881Z,60.81
2018-07-08T00:26:57.869Z,60.75
2018-07-08T00:29:26.795Z,61.53
2018-07-08T00:31:55.734Z,61.28
2018-07-08T00:34:24.646Z,61.38
2018-07-08T00:36:53.571Z,61.16
2018-07-08T00:39:22.499Z,60.92
2018-07-08T00:41:51.556Z,60.30
2018-07-08T00:44:20.502Z,60.36
2018-07-08T00:46:49.466Z,61.21
2018-07-08T00:49:18.419Z,61.83
2018-07-08T00:51:47.310Z,62.04
2018-07-08T00:54:16.263Z,61.56
2018-07-08T00:56:45.215Z,61.82
2018-07-08T00:59:14.247Z,62.10
2018-07-08T01:01:43.190Z,62.70
2018-07-08T01:04:12.066Z,62.78
2018-07-08T01:06:41.001Z,62.97
2018-07-08T01:09:09.915Z,62.73
2018-07-08T01:11:38.888Z,62.15
2018-07-08T01:14:07.897Z,61.53
2018-07-08T01:16:36.813Z,61.82
2018-07-08T01:19:05.793Z,62.35
2018-07-08T01:21:34.781Z,61.71
2018-07-08T01:24:03.769Z,61.69
2018-07-08T01:26:32.754Z,61.42
2018-07-08T01:29:02.061Z,62.18
2018-07-08T01:31:30.968Z,62.45
2018-07-08T01:33:59.893Z,62.73
2018-07-08T01:36:28.776Z,62.38
2018-07-08T01:38:57.668Z,62.23
2018-07-08T01:41:26.586Z,62.56
2018-07-08T01:43:55.486Z,62.93
2018-07-08T01:46:24.421Z,62.29
2018-07-08T01:48:53.357Z,61.96
2018-07-08T01:51:22.264Z,61.58
2018-07-08T01:53:51.278Z,61.05
2018-07-08T01:56:20.173Z,61.19
2018-07-08T01:58:49.100Z,62.30
2018-07-08T02:01:18.033Z,62.88
2018-07-08T02:03:46.953Z,62.44
2018-07-08T02:06:18.788Z,62.77
2018-07-08T02:08:47.897Z,62.21
2018-07-08T02:11:16.877Z,62.25
2018-07-08T02:13:45.816Z,62.00
2018-07-08T02:16:14.791Z,62.99
2018-07-08T02:18:43.757Z,62.56
2018-07-08T02:21:12.760Z,61.61
2018-07-08T02:23:41.705Z,60.95
2018-07-08T02:26:10.655Z,61.57
2018-07-08T02:28:39.696Z,61.52
2018-07-08T02:31:08.705Z,61.40
2018-07-08T02:33:37.639Z,61.16
2018-07-08T02:36:06.608Z,61.69
2018-07-08T02:38:35.543Z,61.10
2018-07-08T02:41:04.485Z,60.09
2018-07-08T02:43:33.540Z,60.40
2018-07-08T02:46:02.532Z,59.84
2018-07-08T02:48:31.532Z,59.52
2018-07-08T02:51:00.479Z,60.11
2018-07-08T02:53:29.387Z,60.00
2018-07-08T02:55:58.291Z,59.95
2018-07-08T02:58:27.350Z,59.45
2018-07-08T03:00:56.290Z,59.55
2018-07-08T03:03:25.251Z,59.49
2018-07-08T03:05:54.213Z,59.17
2018-07-08T03:08:23.101Z,59.39
2018-07-08T03:10:52.125Z,58.60
2018-07-08T03:13:21.045Z,59.23
2018-07-08T03:15:50.075Z,59.12
2018-07-08T03:18:19.097Z,58.62
2018-07-08T03:20:47.987Z,58.29
2018-07-08T03:23:16.913Z,58.85
2018-07-08T03:25:45.827Z,58.35
2018-07-08T03:28:14.815Z,58.43
2018-07-08T03:30:43.751Z,58.67
2018-07-08T03:33:12.677Z,58.99
2018-07-08T03:35:41.587Z,59.32
2018-07-08T03:38:10.541Z,59.53
2018-07-08T03:40:39.439Z,59.19
2018-07-08T03:43:08.399Z,58.60
2018-07-08T03:45:37.333Z,59.04
2018-07-08T03:48:06.287Z,59.67
2018-07-08T03:50:35.787Z,59.38
2018-07-08T03:53:04.755Z,59.58
2018-07-08T03:55:33.701Z,59.27
2018-07-08T03:58:02.727Z,59.42
2018-07-08T04:00:32.101Z,59.36
2018-07-08T04:03:01.019Z,59.75
2018-07-08T04:05:29.958Z,59.75
2018-07-08T04:07:59.133Z,59.91
2018-07-08T04:10:28.073Z,59.76
2018-07-08T04:12:56.956Z,59.22
2018-07-08T04:15:25.853Z,59.55
2018-07-08T04:18:02.090Z,59.42
2018-07-08T04:20:30.991Z,59.51
2018-07-08T04:22:59.972Z,59.16
2018-07-08T04:25:28.938Z,59.24
2018-07-08T04:27:58.044Z,59.36
2018-07-08T04:30:27.048Z,59.48
2018-07-08T04:32:55.979Z,59.49
2018-07-08T04:35:25.237Z,60.24
2018-07-08T04:37:54.167Z,61.23
2018-07-08T04:40:23.141Z,61.33
2018-07-08T04:42:52.159Z,61.44
2018-07-08T04:45:21.069Z,60.68
2018-07-08T04:47:49.999Z,61.39
2018-07-08T04:50:18.903Z,61.08
2018-07-08T04:52:47.908Z,60.70
2018-07-08T04:55:16.809Z,61.12
2018-07-08T04:57:45.793Z,60.97
2018-07-08T05:00:14.791Z,61.23
2018-07-08T05:02:43.740Z,61.76
2018-07-08T05:05:12.764Z,61.27
2018-07-08T05:07:41.674Z,61.23
2018-07-08T05:10:10.632Z,60.60
2018-07-08T05:12:39.566Z,60.71
2018-07-08T05:15:08.452Z,60.05
2018-07-08T05:17:37.452Z,60.49
2018-07-08T05:20:06.434Z,60.47
2018-07-08T05:22:35.423Z,60.39
2018-07-08T05:25:04.477Z,60.16
2018-07-08T05:27:33.421Z,60.26
2018-07-08T05:30:02.692Z,59.94
2018-07-08T05:32:31.601Z,60.11
2018-07-08T05:35:00.567Z,60.47
2018-07-08T05:37:29.481Z,60.56
2018-07-08T05:39:58.404Z,60.18
2018-07-08T05:42:27.310Z,60.39
2018-07-08T05:44:56.244Z,59.94
2018-07-08T05:47:25.158Z,59.87
2018-07-08T05:49:54.120Z,60.09
2018-07-08T05:52:28.630Z,60.42
2018-07-08T05:54:57.566Z,60.70
2018-07-08T05:57:26.498Z,60.86
2018-07-08T05:59:55.429Z,60.37
2018-07-08T06:02:24.395Z,60.21
2018-07-08T06:04:53.335Z,60.10
2018-07-08T06:07:22.308Z,60.58
2018-07-08T06:09:51.300Z,59.98
2018-07-08T06:12:20.204Z,59.82
2018-07-08T06:14:49.177Z,59.72
2018-07-08T06:17:18.133Z,59.16
2018-07-08T06:19:47.087Z,59.45
2018-07-08T06:22:16.058Z,58.74
2018-07-08T06:24:45.035Z,58.17
2018-07-08T06:27:19.543Z,58.60
2018-07-08T06:29:48.498Z,58.05
2018-07-08T06:32:17.461Z,58.21
2018-07-08T06:34:46.426Z,58.01
2018-07-08T06:37:15.359Z,57.72
2018-07-08T06:39:44.319Z,57.54
2018-07-08T06:42:13.237Z,57.08
2018-07-08T06:44:42.184Z,56.67
2018-07-08T06:47:11.143Z,55.50
2018-07-08T06:49:40.084Z,54.57
2018-07-08T06:52:09.121Z,53.86
2018-07-08T06:54:37.988Z,53.45
2018-07-08T06:57:06.999Z,52.18
2018-07-08T06:59:35.977Z,50.85
2018-07-08T07:02:05.072Z,50.68
2018-07-08T07:04:33.963Z,49.68
2018-07-08T07:07:02.900Z,49.48
2018-07-08T07:09:31.860Z,49.15
2018-07-08T07:12:00.801Z,48.00
2018-07-08T07:14:29.738Z,47.14
2018-07-08T07:16:58.730Z,46.76
2018-07-08T07:19:27.597Z,46.09
2018-07-08T07:21:56.551Z,45.61
2018-07-08T07:24:30.944Z,45.32
2018-07-08T07:26:59.936Z,44.94
2018-07-08T07:29:28.830Z,44.42
2018-07-08T07:31:57.728Z,42.11
2018-07-08T07:34:26.663Z,41.07
2018-07-08T07:36:55.847Z,40.83
2018-07-08T07:39:24.780Z,41.01
2018-07-08T07:41:53.764Z,39.82
2018-07-08T07:44:22.720Z,38.35
2018-07-08T07:46:51.676Z,38.77
2018-07-08T07:49:20.582Z,38.81
2018-07-08T07:51:49.502Z,40.49
2018-07-08T07:54:18.412Z,40.41
2018-07-08T07:56:47.352Z,40.47
2018-07-08T07:59:16.316Z,41.34
2018-07-08T08:01:45.366Z,40.39
2018-07-08T08:04:14.340Z,40.98
2018-07-08T08:06:43.325Z,40.38
2018-07-08T08:09:12.288Z,41.79
2018-07-08T08:11:41.171Z,42.35
2018-07-08T08:14:10.245Z,43.14
2018-07-08T08:16:39.181Z,42.96
2018-07-08T08:19:08.039Z,42.35
2018-07-08T08:21:36.969Z,41.70
2018-07-08T08:24:05.891Z,42.51
2018-07-08T08:26:40.473Z,42.72
2018-07-08T08:29:14.990Z,43.58
2018-07-08T08:31:43.929Z,43.02
2018-07-08T08:35:17.221Z,41.65
2018-07-08T08:37:50.584Z,42.07
2018-07-08T08:40:20.753Z,42.68
2018-07-08T08:42:49.709Z,41.98
2018-07-08T08:45:19.565Z,42.29
2018-07-08T08:47:48.519Z,42.37
2018-07-08T08:50:17.762Z,41.98
2018-07-08T08:52:46.703Z,42.47
2018-07-08T08:55:15.878Z,41.38
2018-07-08T08:57:44.760Z,42.01
2018-07-08T09:00:15.624Z,43.10
2018-07-08T09:02:44.504Z,44.04
2018-07-08T09:05:13.439Z,44.13
2018-07-08T09:07:42.373Z,43.91
2018-07-08T09:10:11.310Z,45.06
2018-07-08T09:12:40.246Z,44.67
2018-07-08T09:15:09.195Z,44.91
2018-07-08T09:17:38.113Z,44.17
2018-07-08T09:20:07.140Z,44.03
2018-07-08T09:22:36.054Z,44.27
2018-07-08T09:25:05.788Z,43.98
2018-07-08T09:27:34.700Z,44.59
2018-07-08T09:30:03.669Z,44.81
2018-07-08T09:32:32.584Z,46.14
2018-07-08T09:35:01.521Z,45.75
2018-07-08T09:37:30.423Z,44.66
2018-07-08T09:39:59.306Z,43.58
2018-07-08T09:42:28.207Z,43.99
2018-07-08T09:44:57.090Z,43.88
2018-07-08T09:47:26.088Z,44.25
2018-07-08T09:49:55.012Z,43.36
2018-07-08T09:52:23.936Z,42.96
2018-07-08T09:54:52.899Z,42.17
2018-07-08T09:57:21.928Z,42.50
2018-07-08T09:59:50.885Z,41.94
2018-07-08T10:02:19.813Z,41.73
2018-07-08T10:04:48.788Z,40.97
2018-07-08T10:07:17.676Z,41.18
2018-07-08T10:09:46.684Z,41.31
2018-07-08T10:12:15.624Z,41.89
2018-07-08T10:14:44.593Z,42.27
2018-07-08T10:17:13.500Z,43.10
2018-07-08T10:19:42.472Z,42.85
2018-07-08T10:22:11.285Z,42.21
2018-07-08T10:24:40.269Z,42.25
2018-07-08T10:27:19.262Z,42.68
2018-07-08T10:29:48.205Z,43.25
2018-07-08T10:32:17.093Z,42.70
2018-07-08T10:34:46.043Z,42.76
2018-07-08T10:37:15.825Z,43.56
2018-07-08T10:39:44.783Z,43.89
2018-07-08T10:42:13.707Z,43.05
2018-07-08T10:44:42.635Z,42.50
2018-07-08T10:47:11.564Z,42.78
2018-07-08T10:49:40.488Z,41.89
2018-07-08T10:52:09.402Z,40.67
2018-07-08T10:54:38.337Z,40.06
2018-07-08T10:57:07.289Z,40.39
2018-07-08T10:59:36.222Z,39.76
2018-07-08T11:02:05.107Z,39.90
2018-07-08T11:04:34.030Z,39.22
2018-07-08T11:07:02.976Z,39.37
2018-07-08T11:09:31.933Z,39.71
2018-07-08T11:12:00.865Z,38.99
2018-07-08T11:14:29.839Z,39.46
2018-07-08T11:17:04.369Z,39.70
2018-07-08T11:19:33.274Z,39.41
2018-07-08T11:22:02.168Z,39.37
2018-07-08T11:24:31.073Z,38.67
2018-07-08T11:27:00.000Z,38.07
2018-07-08T11:29:34.564Z,38.16
2018-07-08T11:32:03.461Z,38.74
2018-07-08T11:34:32.377Z,38.27
2018-07-08T11:37:01.262Z,39.35
2018-07-08T11:39:30.215Z,38.78
2018-07-08T11:41:59.131Z,38.71
2018-07-08T11:44:28.098Z,37.45
2018-07-08T11:46:57.032Z,36.47
2018-07-08T11:49:25.944Z,36.10
2018-07-08T11:51:55.133Z,37.67
2018-07-08T11:54:24.092Z,37.41
2018-07-08T11:56:53.419Z,35.57
2018-07-08T11:59:22.405Z,33.52
2018-07-08T12:01:51.347Z,34.21
2018-07-08T12:04:20.281Z,35.41
2018-07-08T12:06:49.376Z,34.11
2018-07-08T12:09:18.363Z,35.39
2018-07-08T12:11:47.289Z,35.40
2018-07-08T12:14:16.185Z,35.43
2018-07-08T12:16:45.091Z,36.01
2018-07-08T12:19:14.006Z,35.69
2018-07-08T12:21:43.000Z,35.14
2018-07-08T12:24:12.018Z,35.75
2018-07-08T12:26:46.400Z,34.61
2018-07-08T12:29:15.350Z,36.33
2018-07-08T12:31:49.931Z,36.43
2018-07-08T12:34:18.833Z,35.89
2018-07-08T12:36:47.777Z,35.71
2018-07-08T12:39:16.721Z,35.87
2018-07-08T12:41:45.627Z,35.71
2018-07-08T12:44:14.637Z,35.82
2018-07-08T12:46:43.535Z,36.29
2018-07-08T12:49:12.501Z,36.07
2018-07-08T12:51:41.407Z,36.14
2018-07-08T12:54:10.373Z,36.26
2018-07-08T12:56:39.278Z,36.08
2018-07-08T12:59:08.247Z,37.13
2018-07-08T13:01:37.160Z,36.94
2018-07-08T13:04:11.679Z,36.29
2018-07-08T13:06:46.314Z,36.54
2018-07-08T13:09:15.233Z,37.01
2018-07-08T13:11:44.239Z,36.96
2018-07-08T13:14:13.157Z,36.38
2018-07-08T13:16:42.079Z,36.84
2018-07-08T13:19:16.475Z,36.93
2018-07-08T13:21:45.388Z,37.25
2018-07-08T13:24:14.363Z,36.94
2018-07-08T13:26:48.837Z,36.91
2018-07-08T13:29:17.793Z,37.40
2018-07-08T13:31:52.401Z,37.20
2018-07-08T13:34:21.683Z,37.32
2018-07-08T13:36:50.624Z,37.72
2018-07-08T13:39:19.733Z,37.41
2018-07-08T13:41:48.561Z,38.12
2018-07-08T13:44:17.511Z,37.53
2018-07-08T13:46:46.551Z,37.63
2018-07-08T13:49:15.453Z,37.96
2018-07-08T13:51:44.437Z,38.87
2018-07-08T13:54:13.374Z,38.57
2018-07-08T13:56:42.320Z,38.50
2018-07-08T13:59:11.276Z,38.04
2018-07-08T14:01:40.207Z,38.32
2018-07-08T14:04:09.145Z,38.14
2018-07-08T14:06:38.089Z,38.41
2018-07-08T14:09:07.508Z,38.26
2018-07-08T14:11:36.959Z,38.09
2018-07-08T14:14:05.913Z,37.13
2018-07-08T14:16:34.875Z,37.51
2018-07-08T14:19:03.816Z,38.15
2018-07-08T14:21:32.797Z,38.29
2018-07-08T14:24:01.727Z,37.98
2018-07-08T14:26:30.677Z,38.20
2018-07-08T14:28:59.575Z,38.15
2018-07-08T14:31:28.633Z,38.33
2018-07-08T14:33:57.629Z,38.27
2018-07-08T14:36:26.527Z,38.22
2018-07-08T14:39:00.953Z,38.50
2018-07-08T14:41:29.900Z,38.48
2018-07-08T14:44:03.768Z,38.26
2018-07-08T14:46:32.801Z,39.38
2018-07-08T14:49:01.748Z,38.06
2018-07-08T14:51:30.705Z,38.73
2018-07-08T14:53:59.711Z,38.70
2018-07-08T14:56:28.707Z,38.71
2018-07-08T14:58:57.729Z,38.15
2018-07-08T15:01:26.689Z,37.98
2018-07-08T15:04:01.233Z,37.99
2018-07-08T15:06:30.185Z,38.74
2018-07-08T15:09:03.391Z,38.33
2018-07-08T15:11:32.287Z,38.23
2018-07-08T15:14:01.322Z,38.71
2018-07-08T15:16:30.357Z,39.48
2018-07-08T15:18:59.298Z,38.89
2018-07-08T15:21:28.343Z,38.64
2018-07-08T15:23:57.242Z,39.03
2018-07-08T15:26:32.827Z,38.82
2018-07-08T15:29:01.752Z,38.79
2018-07-08T15:31:30.657Z,38.25
2018-07-08T15:33:59.607Z,39.06
2018-07-08T15:36:28.590Z,38.49
2018-07-08T15:39:02.981Z,38.24
2018-07-08T15:41:37.507Z,38.52
2018-07-08T15:44:06.551Z,38.91
2018-07-08T15:46:35.461Z,39.20
2018-07-08T15:49:04.425Z,39.84
2018-07-08T15:51:33.372Z,39.91
2018-07-08T15:54:02.365Z,40.13
2018-07-08T15:56:31.208Z,39.13
2018-07-08T15:59:00.249Z,39.70
2018-07-08T16:01:29.140Z,39.47
2018-07-08T16:03:58.046Z,39.63
2018-07-08T16:06:27.074Z,40.06
2018-07-08T16:08:56.060Z,40.13
2018-07-08T16:11:25.022Z,40.08
2018-07-08T16:13:54.140Z,40.37
2018-07-08T16:16:28.662Z,39.63
2018-07-08T16:18:57.654Z,40.49
2018-07-08T16:21:26.592Z,40.14
2018-07-08T16:23:55.528Z,40.44
2018-07-08T16:26:24.474Z,39.90
2018-07-08T16:28:53.592Z,40.38
2018-07-08T16:31:22.568Z,40.91
2018-07-08T16:33:51.614Z,40.92
2018-07-08T16:36:20.577Z,40.34
2018-07-08T16:38:49.524Z,40.33
2018-07-08T16:41:18.547Z,40.70
2018-07-08T16:43:47.516Z,41.02
2018-07-08T16:46:17.426Z,40.62
2018-07-08T16:48:46.339Z,41.72
2018-07-08T16:51:15.280Z,41.28
2018-07-08T16:53:44.238Z,41.37
2018-07-08T16:56:13.259Z,40.93
2018-07-08T16:58:42.142Z,41.25
2018-07-08T17:01:11.084Z,40.97
2018-07-08T17:03:40.044Z,40.91
2018-07-08T17:06:08.969Z,40.95
2018-07-08T17:08:37.908Z,40.57
2018-07-08T17:11:06.792Z,40.75
2018-07-08T17:13:35.992Z,41.12
2018-07-08T17:16:10.650Z,41.41
2018-07-08T17:18:45.068Z,41.18
2018-07-08T17:21:14.173Z,41.46
2018-07-08T17:23:43.050Z,41.45
2018-07-08T17:26:11.960Z,41.78
2018-07-08T17:28:40.971Z,41.75
2018-07-08T17:31:09.906Z,41.98
2018-07-08T17:33:38.871Z,42.19
2018-07-08T17:36:07.884Z,42.07
2018-07-08T17:38:36.787Z,41.37
2018-07-08T17:41:06.146Z,41.45
2018-07-08T17:43:35.120Z,42.28
2018-07-08T17:46:04.383Z,42.17
2018-07-08T17:48:33.334Z,42.98
2018-07-08T17:51:02.330Z,42.69
2018-07-08T17:53:31.270Z,42.75
2018-07-08T17:56:00.192Z,42.92
2018-07-08T17:58:29.112Z,42.65
2018-07-08T18:00:58.106Z,43.00
2018-07-08T18:03:27.020Z,43.26
2018-07-08T18:05:55.957Z,43.13
2018-07-08T18:08:24.950Z,42.77
2018-07-08T18:10:53.904Z,42.61
2018-07-08T18:13:22.845Z,42.69
2018-07-08T18:15:57.415Z,43.63
2018-07-08T18:18:26.368Z,43.52
2018-07-08T18:21:01.994Z,43.12
2018-07-08T18:23:30.890Z,43.15
2018-07-08T18:25:59.844Z,43.30
2018-07-08T18:28:28.934Z,43.81
2018-07-08T18:31:01.720Z,43.82
2018-07-08T18:33:30.727Z,43.97
2018-07-08T18:35:59.660Z,43.23
2018-07-08T18:38:28.668Z,43.07
2018-07-08T18:40:57.663Z,43.28
2018-07-08T18:43:26.604Z,43.14
2018-07-08T18:45:55.554Z,42.68
2018-07-08T18:48:25.622Z,42.64
2018-07-08T18:50:54.554Z,42.82
2018-07-08T18:53:23.585Z,42.76
2018-07-08T18:55:52.604Z,43.17
2018-07-08T18:58:21.562Z,43.26
2018-07-08T19:00:50.505Z,43.68
2018-07-08T19:03:25.079Z,43.75
2018-07-08T19:05:53.982Z,43.45
2018-07-08T19:08:22.924Z,44.34
2018-07-08T19:10:52.019Z,44.46
2018-07-08T19:13:21.084Z,44.46
2018-07-08T19:15:50.103Z,44.58
2018-07-08T19:18:19.056Z,44.65
2018-07-08T19:20:48.038Z,44.63
2018-07-08T19:23:16.941Z,45.35
2018-07-08T19:25:45.875Z,45.72
2018-07-08T19:28:20.306Z,46.02
2018-07-08T19:30:54.672Z,47.34
2018-07-08T19:33:23.675Z,47.59
2018-07-08T19:35:52.578Z,48.18
2018-07-08T19:38:21.566Z,47.89
2018-07-08T19:40:51.136Z,47.90
2018-07-08T19:43:20.126Z,47.85
2018-07-08T19:45:49.172Z,47.70
2018-07-08T19:48:18.196Z,48.19
2018-07-08T19:50:47.265Z,47.86
2018-07-08T19:53:16.182Z,47.15
2018-07-08T19:55:45.099Z,47.45
2018-07-08T19:58:14.066Z,47.91
2018-07-08T20:00:42.989Z,47.82
2018-07-08T20:03:11.988Z,47.21
2018-07-08T20:05:40.935Z,47.59
2018-07-08T20:08:09.892Z,47.27
2018-07-08T20:10:38.792Z,48.04
2018-07-08T20:13:08.177Z,48.17
2018-07-08T20:15:37.160Z,48.92
2018-07-08T20:18:06.138Z,49.01
2018-07-08T20:20:35.068Z,48.82
2018-07-08T20:23:04.011Z,49.46
2018-07-08T20:25:32.931Z,49.25
2018-07-08T20:28:07.316Z,48.87
2018-07-08T20:30:41.729Z,48.27
2018-07-08T20:33:10.674Z,48.46
2018-07-08T20:35:39.613Z,48.39
2018-07-08T20:38:08.650Z,49.26
2018-07-08T20:40:37.982Z,49.18
2018-07-08T20:43:06.984Z,49.12
2018-07-08T20:45:35.914Z,49.42
2018-07-08T20:48:04.937Z,49.74
2018-07-08T20:50:33.858Z,49.85
2018-07-08T20:53:02.810Z,50.00
2018-07-08T20:55:31.750Z,49.64
2018-07-08T20:58:00.758Z,49.83
2018-07-08T21:00:35.236Z,49.89
2018-07-08T21:03:04.152Z,50.42
2018-07-08T21:05:33.090Z,51.54
2018-07-08T21:08:01.992Z,51.55
2018-07-08T21:10:34.064Z,51.73
2018-07-08T21:13:03.391Z,51.41
2018-07-08T21:15:32.327Z,51.72
2018-07-08T21:18:01.274Z,52.48
2018-07-08T21:20:30.227Z,52.33
2018-07-08T21:22:59.393Z,52.55
2018-07-08T21:25:28.353Z,53.14
2018-07-08T21:27:57.311Z,53.27
2018-07-08T21:30:26.954Z,53.34
2018-07-08T21:32:55.906Z,53.96
2018-07-08T21:35:24.833Z,54.23
2018-07-08T21:37:53.837Z,54.77
2018-07-08T21:40:22.810Z,55.38
2018-07-08T21:42:51.940Z,55.37
2018-07-08T21:45:20.882Z,55.32
2018-07-08T21:47:50.993Z,55.33
2018-07-08T21:50:19.917Z,55.14
2018-07-08T21:52:48.825Z,54.93
2018-07-08T21:55:17.744Z,54.96
2018-07-08T21:57:46.720Z,54.56
2018-07-08T22:00:15.638Z,55.03
2018-07-08T22:02:45.221Z,54.49
2018-07-08T22:05:14.230Z,55.44
2018-07-08T22:07:48.427Z,55.13
2018-07-08T22:10:17.465Z,55.21
2018-07-08T22:12:46.380Z,55.55
2018-07-08T22:15:15.295Z,55.97
2018-07-08T22:17:44.209Z,56.20
2018-07-08T22:20:13.129Z,56.60
2018-07-08T22:22:42.011Z,57.03
2018-07-08T22:25:10.942Z,57.04
2018-07-08T22:27:39.910Z,57.88
2018-07-08T22:30:08.821Z,58.28
2018-07-08T22:32:37.789Z,58.58
2018-07-08T22:35:06.766Z,58.30
2018-07-08T22:37:35.710Z,59.61
2018-07-08T22:40:04.643Z,60.50
2018-07-08T22:42:33.628Z,61.14
2018-07-08T22:45:02.637Z,61.39
2018-07-08T22:47:36.986Z,61.54
2018-07-08T22:50:05.996Z,61.38
2018-07-08T22:52:34.917Z,61.18
2018-07-08T22:55:03.931Z,61.63
2018-07-08T22:57:32.874Z,62.03
2018-07-08T23:00:13.092Z,62.21
2018-07-08T23:02:43.887Z,62.49
2018-07-08T23:05:13.034Z,61.80
2018-07-08T23:07:42.256Z,61.77
2018-07-08T23:10:12.602Z,62.25
2018-07-08T23:12:41.551Z,62.70
2018-07-08T23:15:10.510Z,63.43
2018-07-08T23:17:43.598Z,64.00
2018-07-08T23:20:12.552Z,63.92
2018-07-08T23:22:52.688Z,63.38
2018-07-08T23:25:21.589Z,63.69
2018-07-08T23:27:50.650Z,64.11
2018-07-08T23:30:19.520Z,64.42
2018-07-08T23:32:48.591Z,64.39
2018-07-08T23:35:17.786Z,64.96
2018-07-08T23:37:46.744Z,65.17
2018-07-08T23:40:15.714Z,65.63
2018-07-08T23:42:44.608Z,65.95
2018-07-08T23:45:17.884Z,65.72
2018-07-08T23:47:52.310Z,66.33
2018-07-08T23:50:21.231Z,65.67
2018-07-08T23:52:50.178Z,65.39
2018-07-08T23:55:19.092Z,65.08
2018-07-08T23:57:48.048Z,66.08
